Cordova, AK (99574)

3:42 PM AKDT on August 30, 2014 (GMT -0800)
Cordova-Smith | Change Station
CLOSE
Current Station
Airport
Location: Cordova,
Elevation: 43 ft
Nearby Weather Stations

Elev 43 ft 60.49 °N, 145.45 °W | Updated 49 minutes ago

Light Rain
Light Rain
52 °F
Feels Like 52 °F
N
0
Wind Variable Wind from North

Today
High -- | Low -- °F
--% Chance of Precip.
Yesterday
High -- | Low -- °F
Precip. -- in
6:32 AM 8:53 PM
Waxing Crescent, 25% visible
Pressure 29.57 in
Visibility 8.0 miles
Clouds Few 300 ft
Mostly Cloudy 3200 ft
Overcast 5000 ft
Dew Point 49 °F
Humidity 89%
Rainfall 0.99 in
Snow Depth Not available.
UV 1 out of 12
Pollen Not available.
Air Quality Not available.
Flu Activity Not available.
METAR PACV 302253Z 00000KT 8SM -RA FEW003 BKN032 OVC050 11/09 A2956 RMK AO2 SLP011 P0001 T01110094

More Conditions Fewer Conditions

Pressure 29.57 in
Visibility 8.0 miles
Clouds Few 300 ft
Mostly Cloudy 3200 ft
Overcast 5000 ft
Dew Point 49 °F
Humidity 89%
Rainfall 0.99 in
Snow Depth Not available.
UV 1 out of 12
Pollen Not available.
Air Quality Not available.
Flu Activity Not available.
METAR PACV 302253Z 00000KT 8SM -RA FEW003 BKN032 OVC050 11/09 A2956 RMK AO2 SLP011 P0001 T01110094

More Conditions Fewer Conditions

10-Day Weather Forecast

Almanac

Astronomy

Aug. 30, 2014 Rise Set
Actual Time 6:32 AM AKDT 8:53 PM AKDT
Civil Twilight 5:45 AM AKDT 9:39 PM AKDT
Nautical Twilight 4:44 AM AKDT 10:40 PM AKDT
Astronomical Twilight 3:19 AM AKDT 12:02 AM AKDT
Moon 12:56 PM AKDT 10:02 PM AKDT
Length of Visible Light 15h 53m
Length of Day
14h 21m
Tomorrow will be 5m 29s shorter.
Waxing Crescent, 25% of the Moon is Illuminated
Today
Waxing Crescent
Sep 2
First Quarter
Sep 8
Full
Sep 15
Last Quarter
Sep 24
New

Today's Extremes

State Highs State Lows

Community

WunderPhotos

Upload Photos

1,748,676 photos uploaded!

Nearby

Snow Depth

Station Depth Elevation
Upper Tsaina River 0 in 1750 ft
Grandview 10 in 1100 ft
Turnagain Pass 0 in 1880 ft
Grouse Creek Divide 0 in 700 ft
Summit Creek 0 in 1400 ft

Earthquake Activity

City Distance Mag. Time & Date
No recent earthquake activity has been reported nearby.
Minimum magnitude displayed is 2.5.

Coastal Water Temperatures

Place Temperature
No Stations Reporting

Nearby Weather Stations